Terminal Aerodrome Forecast
Issued by NWS Mt. Holly, NJ

Home | Current Version | Previous Version | Text Only | Print | Product List | Glossary On
Versions: 1 2 3 4 5 6 7 8 9 10 11 12 13 14 15 16
000
FTUS41 KPHI 210100 AAA
TAFILG
TAF AMD
KILG 210102Z 2101/2124 15008KT P6SM SCT050 BKN150
     FM210500 12005KT P6SM BKN040
     FM211600 17008KT P6SM VCSH SCT040 BKN100
     FM212000 17008KT 6SM -SHRA BKN040=

USA.gov is the U.S. government's official web portal to all federal, state and local government web resources and services.